Time;durP1;ratioP1;P1;durP2;ratioP2;P2;SDS_P1;SDS_P2;PMS_P1;PMS_P2;Temp;Humidity;BMP_temperature;BMP_pressure;BME280_temperature;BME280_humidity;BME280_pressure;Samples;Min_cycle;Max_cycle;Signal;HPM_P1;HPM_P2
2021/08/30 00:01:52;;;;;;;2.63;1.53;;;15.20;99.90;;;;;;5033547;28;20192;-80
2021/08/30 00:04:18;;;;;;;1.77;1.50;;;15.20;99.90;;;;;;5031429;28;20253;-81
2021/08/30 00:06:44;;;;;;;2.20;1.50;;;15.20;99.90;;;;;;5033133;28;20431;-81
2021/08/30 00:09:10;;;;;;;2.47;1.60;;;15.20;99.90;;;;;;5033090;28;20455;-79
2021/08/30 00:11:36;;;;;;;2.43;1.93;;;15.20;99.90;;;;;;5032891;28;20172;-79
2021/08/30 00:14:02;;;;;;;2.30;1.73;;;15.20;99.90;;;;;;5015701;28;20530;-80
2021/08/30 00:16:27;;;;;;;2.37;1.67;;;15.20;99.90;;;;;;5033129;28;20187;-80
2021/08/30 00:18:53;;;;;;;1.87;1.60;;;15.20;99.90;;;;;;5032599;28;20500;-80
2021/08/30 00:21:18;;;;;;;2.20;1.77;;;15.20;99.90;;;;;;5031328;28;20188;-80
2021/08/30 00:23:44;;;;;;;1.80;1.30;;;15.20;99.90;;;;;;5032453;28;20525;-80
2021/08/30 00:26:09;;;;;;;3.60;1.70;;;15.20;99.90;;;;;;5031288;28;20207;-81
2021/08/30 00:28:35;;;;;;;2.03;1.40;;;15.20;99.90;;;;;;5031724;28;20183;-80
2021/08/30 00:31:01;;;;;;;1.93;1.50;;;15.20;99.90;;;;;;5015137;28;20290;-79
2021/08/30 00:33:27;;;;;;;2.23;1.40;;;15.20;99.90;;;;;;5033868;28;20356;-80
2021/08/30 00:35:52;;;;;;;1.80;1.47;;;15.20;99.90;;;;;;5032175;28;20203;-80
2021/08/30 00:38:18;;;;;;;3.07;1.80;;;15.20;99.90;;;;;;5033605;28;20548;-79
2021/08/30 00:40:43;;;;;;;1.70;1.60;;;15.20;99.90;;;;;;5031910;28;20637;-80
2021/08/30 00:43:09;;;;;;;2.93;1.40;;;15.20;99.90;;;;;;5033510;28;20197;-79
2021/08/30 00:45:35;;;;;;;1.80;1.57;;;15.20;99.90;;;;;;5033229;28;20417;-79
2021/08/30 00:48:01;;;;;;;2.13;1.63;;;15.20;99.90;;;;;;5032224;28;20188;-80
2021/08/30 00:50:28;;;;;;;2.37;1.80;;;15.20;99.90;;;;;;5031774;28;20466;-79
2021/08/30 00:52:54;;;;;;;2.50;1.90;;;15.20;99.90;;;;;;5033125;28;20755;-81
2021/08/30 00:55:20;;;;;;;3.07;1.70;;;15.20;99.90;;;;;;5033327;28;20427;-81
2021/08/30 00:57:46;;;;;;;1.77;1.20;;;15.20;99.90;;;;;;5032909;28;20561;-80
2021/08/30 01:00:12;;;;;;;2.43;1.83;;;15.20;99.90;;;;;;5032477;28;20940;-80
2021/08/30 01:02:42;;;;;;;2.40;1.80;;;15.10;99.90;;;;;;5031812;28;20426;-79
2021/08/30 01:05:11;;;;;;;2.10;1.83;;;15.20;99.90;;;;;;5032186;28;20481;-80
2021/08/30 01:08:09;;;;;;;2.57;1.90;;;15.20;99.90;;;;;;5031493;28;20947;-80
2021/08/30 01:10:58;;;;;;;2.30;1.80;;;15.20;99.90;;;;;;5022611;28;20462;-80
2021/08/30 01:13:45;;;;;;;3.17;2.20;;;15.10;99.90;;;;;;5022262;28;20876;-79
2021/08/30 01:16:13;;;;;;;2.20;1.80;;;15.10;99.90;;;;;;5035610;28;20514;-80
2021/08/30 01:18:40;;;;;;;1.97;1.63;;;15.10;99.90;;;;;;5037311;28;20414;-81
2021/08/30 01:21:33;;;;;;;2.37;2.17;;;15.10;99.90;;;;;;5036366;28;20910;-80
2021/08/30 01:24:06;;;;;;;1.80;1.23;;;15.10;99.90;;;;;;5037012;28;20945;-82
2021/08/30 01:26:37;;;;;;;2.87;1.90;;;15.10;99.90;;;;;;5036612;28;20410;-80
2021/08/30 01:29:14;;;;;;;2.57;2.00;;;15.10;99.90;;;;;;5036836;28;20501;-80
2021/08/30 01:31:52;;;;;;;2.90;2.23;;;15.00;99.90;;;;;;5035921;28;20407;-80
2021/08/30 01:34:22;;;;;;;2.57;2.17;;;15.00;99.90;;;;;;5036099;28;20426;-80
2021/08/30 01:36:50;;;;;;;3.20;2.27;;;15.00;99.90;;;;;;5036740;28;20414;-80
2021/08/30 01:39:17;;;;;;;3.20;2.60;;;14.90;99.90;;;;;;5042080;28;20419;-81
2021/08/30 01:41:44;;;;;;;3.63;2.53;;;15.00;99.90;;;;;;5035142;28;20432;-79
2021/08/30 01:44:10;;;;;;;2.20;2.00;;;15.00;99.90;;;;;;5034588;28;21003;-81
2021/08/30 01:46:37;;;;;;;2.80;2.30;;;15.00;99.90;;;;;;5035686;28;20473;-79
2021/08/30 01:49:05;;;;;;;2.30;1.93;;;15.00;99.90;;;;;;5018048;28;20467;-80
2021/08/30 01:51:31;;;;;;;4.77;2.23;;;15.00;99.90;;;;;;5018625;28;20795;-78
2021/08/30 01:53:58;;;;;;;2.30;2.10;;;15.10;99.90;;;;;;5036300;28;20422;-79
2021/08/30 01:56:27;;;;;;;3.23;2.33;;;15.10;99.90;;;;;;5036321;28;20460;-79
2021/08/30 02:01:39;;;;;;;4.20;2.60;;;15.00;99.90;;;;;;5038713;28;20412;-80
2021/08/30 02:04:08;;;;;;;4.07;3.03;;;15.00;99.90;;;;;;5036919;28;20925;-81
2021/08/30 02:06:34;;;;;;;2.60;2.20;;;15.00;99.90;;;;;;5037522;28;20445;-81
2021/08/30 02:09:01;;;;;;;2.43;2.03;;;15.10;99.90;;;;;;5021145;28;20422;-80
2021/08/30 02:11:34;;;;;;;2.17;1.97;;;15.00;99.90;;;;;;5037483;28;20444;-81
2021/08/30 02:14:02;;;;;;;2.40;2.03;;;15.00;99.90;;;;;;5035389;28;20441;-81
2021/08/30 02:16:28;;;;;;;2.47;2.27;;;15.00;99.90;;;;;;5035147;28;20419;-81
2021/08/30 02:19:20;;;;;;;2.80;2.57;;;15.00;99.90;;;;;;5035129;28;20439;-80
2021/08/30 02:21:57;;;;;;;2.80;2.57;;;15.00;99.90;;;;;;5035853;28;20246;-80
2021/08/30 02:24:25;;;;;;;2.67;2.20;;;15.00;99.90;;;;;;5034923;28;20427;-80
2021/08/30 02:26:55;;;;;;;2.87;2.43;;;15.00;99.90;;;;;;5037715;28;20563;-81
2021/08/30 02:29:25;;;;;;;3.50;2.40;;;15.00;99.90;;;;;;5037678;28;20457;-80
2021/08/30 02:31:56;;;;;;;3.33;2.57;;;15.00;99.90;;;;;;5036702;28;20430;-81
2021/08/30 02:34:24;;;;;;;4.43;2.70;;;15.00;99.90;;;;;;5036453;28;20441;-81
2021/08/30 02:36:52;;;;;;;3.57;2.73;;;14.90;99.90;;;;;;5035308;28;20425;-81
2021/08/30 02:39:19;;;;;;;2.50;2.07;;;14.90;99.90;;;;;;5035745;28;20422;-82
2021/08/30 02:41:46;;;;;;;2.60;2.40;;;15.00;99.90;;;;;;5035521;28;20418;-81
2021/08/30 02:44:13;;;;;;;3.60;2.70;;;15.00;99.90;;;;;;5037410;28;20430;-81
2021/08/30 02:46:43;;;;;;;2.17;1.93;;;14.90;99.90;;;;;;5036795;28;20417;-81
2021/08/30 02:49:09;;;;;;;2.65;2.15;;;14.90;99.90;;;;;;5035387;28;20481;-81
2021/08/30 02:51:37;;;;;;;3.60;2.70;;;14.90;99.90;;;;;;5017727;28;20521;-80
2021/08/30 02:54:04;;;;;;;2.67;2.10;;;15.00;99.90;;;;;;5033370;28;20438;-81
2021/08/30 02:56:30;;;;;;;3.80;2.20;;;15.00;99.90;;;;;;5033604;28;20418;-80
2021/08/30 02:58:57;;;;;;;2.47;1.90;;;15.00;99.90;;;;;;5017523;28;20411;-80
2021/08/30 03:01:23;;;;;;;2.70;2.10;;;15.00;99.90;;;;;;5035426;28;20411;-79
2021/08/30 03:03:49;;;;;;;3.43;2.23;;;15.00;99.90;;;;;;5033856;28;20831;-80
2021/08/30 03:06:16;;;;;;;2.50;2.20;;;15.10;99.90;;;;;;5035861;28;20438;-81
2021/08/30 03:08:42;;;;;;;2.27;1.80;;;15.30;99.90;;;;;;5033513;28;20492;-80
2021/08/30 03:11:10;;;;;;;2.60;1.97;;;15.30;99.90;;;;;;5035173;28;20462;-80
2021/08/30 03:13:39;;;;;;;2.90;2.23;;;15.20;99.90;;;;;;5033389;28;20178;-80
2021/08/30 03:16:05;;;;;;;3.17;2.20;;;15.10;99.90;;;;;;5033677;28;20445;-80
2021/08/30 03:18:33;;;;;;;3.50;2.67;;;15.10;99.90;;;;;;5034974;28;20411;-79
2021/08/30 03:20:58;;;;;;;3.07;2.33;;;15.10;99.90;;;;;;5033746;28;20419;-80
2021/08/30 03:23:26;;;;;;;2.50;2.13;;;15.20;99.90;;;;;;5035164;28;20411;-81
2021/08/30 03:25:53;;;;;;;3.17;2.40;;;15.20;99.90;;;;;;5032864;28;20224;-80
2021/08/30 03:28:20;;;;;;;2.97;1.80;;;15.20;99.90;;;;;;5032790;28;20420;-80
2021/08/30 03:30:48;;;;;;;4.20;2.60;;;15.20;99.90;;;;;;5032371;28;20458;-80
2021/08/30 03:33:15;;;;;;;3.40;2.27;;;15.10;99.90;;;;;;5033312;28;20519;-81
2021/08/30 03:35:41;;;;;;;3.37;2.40;;;15.10;99.90;;;;;;5033652;28;20533;-79
2021/08/30 03:38:08;;;;;;;2.50;2.23;;;15.10;99.90;;;;;;5035915;28;20488;-80
2021/08/30 03:40:35;;;;;;;2.17;1.90;;;15.00;99.90;;;;;;5034855;28;20414;-81
2021/08/30 03:43:02;;;;;;;2.40;2.20;;;15.00;99.90;;;;;;5034386;28;20457;-80
2021/08/30 03:45:29;;;;;;;3.00;2.20;;;15.00;99.90;;;;;;5033866;28;20437;-80
2021/08/30 03:47:56;;;;;;;3.37;2.47;;;15.00;99.90;;;;;;5034947;28;20530;-80
2021/08/30 03:50:22;;;;;;;3.37;2.40;;;15.00;99.90;;;;;;5017687;28;20535;-79
2021/08/30 03:52:48;;;;;;;2.40;2.13;;;15.00;99.90;;;;;;5036136;28;20501;-79
2021/08/30 03:55:14;;;;;;;3.70;2.60;;;15.00;99.90;;;;;;5017933;28;20462;-81
2021/08/30 03:57:43;;;;;;;3.70;3.03;;;15.00;99.90;;;;;;5034579;28;20449;-80
2021/08/30 04:00:10;;;;;;;3.00;2.50;;;15.00;99.90;;;;;;5034407;28;20171;-80
2021/08/30 04:02:41;;;;;;;3.33;2.10;;;15.10;99.90;;;;;;5034424;28;20411;-80
2021/08/30 04:05:07;;;;;;;2.90;2.17;;;15.00;99.90;;;;;;5034390;28;20508;-81
2021/08/30 04:07:34;;;;;;;3.10;2.60;;;15.00;99.90;;;;;;5034119;28;20419;-82
2021/08/30 04:10:00;;;;;;;2.53;2.13;;;15.00;99.90;;;;;;5034865;28;20492;-81
2021/08/30 04:12:26;;;;;;;4.63;2.97;;;15.00;99.90;;;;;;5036117;28;20774;-82
2021/08/30 04:14:52;;;;;;;4.77;2.83;;;15.00;99.90;;;;;;5035600;28;20522;-82
2021/08/30 04:17:18;;;;;;;2.57;2.33;;;15.00;99.90;;;;;;5034987;28;20454;-83
2021/08/30 04:19:43;;;;;;;2.77;2.30;;;14.90;99.90;;;;;;5035387;28;20239;-81
2021/08/30 04:22:09;;;;;;;4.50;3.00;;;14.90;99.90;;;;;;5034139;28;20278;-81
2021/08/30 04:24:35;;;;;;;6.70;3.63;;;14.90;99.90;;;;;;5016477;28;20197;-82
2021/08/30 04:27:01;;;;;;;2.87;2.47;;;15.00;99.90;;;;;;5032796;28;20419;-82
2021/08/30 04:29:28;;;;;;;4.10;3.10;;;15.00;99.90;;;;;;5033444;28;20461;-82
2021/08/30 04:31:54;;;;;;;3.63;2.80;;;15.00;99.90;;;;;;5035520;28;20403;-82
2021/08/30 04:34:24;;;;;;;5.40;3.60;;;15.00;99.90;;;;;;5033058;28;20438;-80
2021/08/30 04:36:50;;;;;;;3.97;2.63;;;15.00;99.90;;;;;;5034337;28;20415;-80
2021/08/30 04:39:15;;;;;;;4.10;3.07;;;15.00;99.90;;;;;;5033380;28;20469;-81
2021/08/30 04:41:43;;;;;;;5.07;3.53;;;15.00;99.90;;;;;;5034451;28;20424;-80
2021/08/30 04:44:09;;;;;;;5.00;3.33;;;15.00;99.90;;;;;;5036559;28;20197;-80
2021/08/30 04:46:35;;;;;;;6.20;4.87;;;15.20;99.90;;;;;;5038616;28;20423;-82
2021/08/30 04:49:01;;;;;;;5.43;3.90;;;15.20;99.90;;;;;;5039667;28;20483;-80
2021/08/30 04:51:26;;;;;;;9.67;4.57;;;15.30;99.90;;;;;;5039579;28;20184;-81
2021/08/30 04:53:52;;;;;;;4.30;3.57;;;15.20;99.90;;;;;;5036808;28;20168;-79
2021/08/30 04:56:17;;;;;;;6.43;4.00;;;15.10;99.90;;;;;;5039547;28;20177;-79
2021/08/30 04:58:43;;;;;;;7.30;4.10;;;15.20;99.90;;;;;;5035269;28;20236;-79
2021/08/30 05:01:08;;;;;;;8.13;4.40;;;15.10;99.90;;;;;;5036168;28;20192;-79
2021/08/30 05:03:34;;;;;;;8.60;4.30;;;15.10;99.90;;;;;;5036052;28;20173;-78
2021/08/30 05:05:59;;;;;;;7.50;5.00;;;15.10;99.90;;;;;;5035009;28;20713;-79
2021/08/30 05:08:25;;;;;;;8.73;5.50;;;15.10;99.90;;;;;;5012175;28;20200;-78
2021/08/30 05:10:51;;;;;;;9.20;5.90;;;15.10;99.90;;;;;;5015154;28;20687;-79
2021/08/30 05:13:16;;;;;;;9.20;5.90;;;15.10;99.90;;;;;;5015626;28;20180;-78
2021/08/30 05:15:42;;;;;;;9.17;5.70;;;15.10;99.90;;;;;;5014796;28;20204;-81
2021/08/30 05:18:08;;;;;;;9.93;5.27;;;15.20;99.90;;;;;;5016472;28;20183;-78
2021/08/30 05:20:33;;;;;;;7.80;4.97;;;15.30;99.90;;;;;;5015967;28;20280;-78
2021/08/30 05:22:59;;;;;;;8.03;4.87;;;15.30;99.90;;;;;;5014279;28;20498;-80
2021/08/30 05:25:24;;;;;;;7.00;4.30;;;15.30;99.90;;;;;;5014729;28;20186;-79
2021/08/30 05:27:51;;;;;;;6.67;4.70;;;15.30;99.90;;;;;;5005491;28;20185;-80
2021/08/30 05:30:17;;;;;;;6.60;4.00;;;15.30;99.90;;;;;;4997429;28;20226;-80
2021/08/30 05:32:43;;;;;;;5.77;4.00;;;15.30;99.90;;;;;;5008291;28;20416;-79
2021/08/30 05:35:09;;;;;;;6.80;5.10;;;15.30;99.90;;;;;;5019249;28;20960;-79
2021/08/30 05:37:34;;;;;;;7.43;4.53;;;15.30;99.90;;;;;;5016785;28;20601;-82
2021/08/30 05:40:00;;;;;;;7.97;4.60;;;15.30;99.90;;;;;;5014311;28;20432;-81
2021/08/30 05:42:25;;;;;;;6.63;4.23;;;15.40;99.90;;;;;;5014420;28;20561;-80
2021/08/30 05:44:51;;;;;;;8.93;4.03;;;15.30;99.90;;;;;;4998070;28;20200;-80
2021/08/30 05:47:17;;;;;;;7.70;4.57;;;15.10;99.90;;;;;;5014573;28;20623;-80
2021/08/30 05:49:42;;;;;;;7.37;3.70;;;15.10;99.90;;;;;;5014491;28;20204;-79
2021/08/30 05:52:08;;;;;;;5.57;3.40;;;15.10;99.90;;;;;;5014892;28;20207;-79
2021/08/30 05:54:34;;;;;;;6.40;4.10;;;15.10;99.90;;;;;;5013883;28;20197;-79
2021/08/30 05:56:59;;;;;;;7.20;4.60;;;15.10;99.90;;;;;;5013531;28;20180;-79
2021/08/30 05:59:25;;;;;;;6.13;3.20;;;15.20;99.90;;;;;;5006946;28;20185;-78
2021/08/30 06:01:50;;;;;;;5.13;3.50;;;15.30;99.90;;;;;;4995847;28;20649;-79
2021/08/30 06:04:16;;;;;;;6.70;4.13;;;15.20;99.90;;;;;;5010057;28;20205;-80
2021/08/30 06:06:42;;;;;;;8.47;3.77;;;15.30;99.90;;;;;;5018122;28;20199;-79
2021/08/30 06:09:07;;;;;;;11.67;4.80;;;15.20;99.90;;;;;;5016338;28;20175;-80
2021/08/30 06:11:33;;;;;;;7.03;4.10;;;15.20;99.90;;;;;;5016257;28;20425;-77
2021/08/30 06:13:58;;;;;;;5.77;3.53;;;15.30;99.90;;;;;;5015472;28;20185;-78
2021/08/30 06:16:24;;;;;;;7.47;4.23;;;15.40;99.90;;;;;;5013788;28;20278;-78
2021/08/30 06:18:49;;;;;;;6.57;4.17;;;15.40;99.90;;;;;;5014803;28;20276;-77
2021/08/30 06:21:15;;;;;;;8.70;4.73;;;15.40;99.90;;;;;;5012246;28;20460;-77
2021/08/30 06:23:41;;;;;;;6.77;4.47;;;15.50;99.90;;;;;;4996392;28;20213;-77
2021/08/30 06:26:06;;;;;;;6.57;4.60;;;15.60;99.90;;;;;;4995205;28;20182;-77
2021/08/30 06:28:32;;;;;;;7.97;4.97;;;15.50;99.90;;;;;;5013506;28;20190;-77
2021/08/30 06:30:57;;;;;;;7.83;5.10;;;15.50;99.90;;;;;;5015847;28;20212;-76
2021/08/30 06:33:23;;;;;;;9.27;5.53;;;15.40;99.90;;;;;;5013893;28;20556;-78
2021/08/30 06:35:48;;;;;;;8.77;4.67;;;15.40;99.90;;;;;;5014116;28;20673;-78
2021/08/30 06:38:15;;;;;;;6.77;5.20;;;15.40;99.90;;;;;;5014553;28;20189;-78
2021/08/30 06:40:41;;;;;;;10.90;5.80;;;15.50;99.90;;;;;;5012856;28;20660;-77
2021/08/30 06:43:06;;;;;;;8.77;5.50;;;15.60;99.90;;;;;;5012925;28;20452;-78
2021/08/30 06:45:32;;;;;;;10.40;6.70;;;15.60;99.90;;;;;;5015246;28;20217;-78
2021/08/30 06:47:59;;;;;;;11.20;7.37;;;15.70;99.90;;;;;;5012378;28;20184;-79
2021/08/30 06:50:25;;;;;;;18.97;10.53;;;15.80;99.90;;;;;;5014915;28;20987;-79
2021/08/30 06:52:54;;;;;;;10.93;7.30;;;15.80;99.90;;;;;;4997051;28;20417;-78
2021/08/30 06:55:20;;;;;;;12.37;6.50;;;15.80;99.90;;;;;;5013445;28;20471;-76
2021/08/30 06:57:47;;;;;;;8.90;6.47;;;15.80;99.90;;;;;;5007922;28;20429;-77
2021/08/30 07:00:16;;;;;;;12.50;6.47;;;15.80;99.90;;;;;;5006472;28;20177;-77
2021/08/30 07:02:42;;;;;;;12.67;7.90;;;15.70;99.90;;;;;;5012253;28;20519;-77
2021/08/30 07:05:08;;;;;;;14.80;7.87;;;15.60;99.90;;;;;;5008110;28;20984;-77
2021/08/30 07:07:33;;;;;;;14.00;7.43;;;15.70;99.90;;;;;;5021656;28;20243;-78
2021/08/30 07:09:59;;;;;;;12.97;7.40;;;15.70;99.90;;;;;;5016634;28;20209;-77
2021/08/30 07:12:25;;;;;;;14.87;9.53;;;15.60;99.90;;;;;;5026475;28;20660;-77
2021/08/30 07:14:50;;;;;;;14.20;8.20;;;15.70;99.90;;;;;;5014893;28;20641;-78
2021/08/30 07:17:16;;;;;;;14.37;8.27;;;15.60;99.90;;;;;;5002787;28;20203;-78
2021/08/30 07:19:41;;;;;;;15.60;7.83;;;15.60;99.90;;;;;;5020888;28;20181;-78
2021/08/30 07:22:07;;;;;;;14.60;7.83;;;15.70;99.90;;;;;;5003664;28;20250;-78
2021/08/30 07:24:33;;;;;;;12.33;7.20;;;15.80;99.90;;;;;;5017203;28;20198;-77
2021/08/30 07:27:02;;;;;;;14.13;7.70;;;15.90;99.90;;;;;;5011813;28;20180;-77
2021/08/30 07:29:28;;;;;;;12.17;6.93;;;15.90;99.90;;;;;;5012288;28;20629;-77
2021/08/30 07:31:53;;;;;;;12.53;6.97;;;15.90;99.90;;;;;;5011488;28;20470;-77
2021/08/30 07:34:19;;;;;;;9.73;5.53;;;15.80;99.90;;;;;;5011823;28;20217;-77
2021/08/30 07:36:47;;;;;;;8.93;6.43;;;15.80;99.90;;;;;;5012911;28;20548;-78
2021/08/30 07:39:12;;;;;;;10.83;6.40;;;15.80;99.90;;;;;;5011659;28;20192;-77
2021/08/30 07:41:38;;;;;;;10.23;5.83;;;15.90;99.90;;;;;;5012801;28;20413;-76
2021/08/30 07:44:04;;;;;;;8.03;5.40;;;15.90;99.90;;;;;;4991308;28;20202;-77
2021/08/30 07:46:30;;;;;;;6.90;5.30;;;16.00;99.90;;;;;;5010553;28;20433;-77
2021/08/30 07:48:55;;;;;;;8.60;5.73;;;16.00;99.90;;;;;;4999568;28;20200;-78
2021/08/30 07:51:23;;;;;;;10.37;5.87;;;16.00;99.90;;;;;;5007002;28;20287;-78
2021/08/30 07:53:48;;;;;;;11.60;6.60;;;16.00;99.90;;;;;;5013330;28;20605;-77
2021/08/30 07:56:14;;;;;;;9.70;5.43;;;16.10;99.90;;;;;;5012267;28;20433;-77
2021/08/30 07:58:40;;;;;;;6.73;4.83;;;16.10;99.90;;;;;;5010708;28;20182;-78
2021/08/30 08:01:06;;;;;;;12.20;6.40;;;16.10;99.90;;;;;;5025256;28;20422;-78
2021/08/30 08:03:31;;;;;;;10.13;5.93;;;16.10;99.90;;;;;;5013837;28;20205;-78
2021/08/30 08:05:59;;;;;;;9.83;5.93;;;16.00;99.90;;;;;;5013541;28;20209;-79
2021/08/30 08:08:28;;;;;;;10.33;5.80;;;16.10;99.90;;;;;;5011219;28;20178;-78
2021/08/30 08:10:53;;;;;;;10.73;5.97;;;16.10;99.90;;;;;;5013489;28;20483;-78
2021/08/30 08:13:19;;;;;;;8.93;5.20;;;16.10;99.90;;;;;;5012080;28;20969;-78
2021/08/30 08:15:46;;;;;;;8.30;5.73;;;16.00;99.90;;;;;;5012612;28;20206;-78
2021/08/30 08:18:11;;;;;;;8.40;5.30;;;16.10;99.90;;;;;;4999473;28;20506;-77
2021/08/30 08:20:37;;;;;;;10.67;6.40;;;16.20;99.90;;;;;;5012307;28;20416;-79
2021/08/30 08:23:03;;;;;;;9.93;5.77;;;16.20;99.90;;;;;;5013533;28;20591;-78
2021/08/30 08:25:29;;;;;;;13.00;6.43;;;16.30;99.90;;;;;;5014689;28;20201;-78
2021/08/30 08:27:57;;;;;;;9.80;5.50;;;16.30;99.90;;;;;;5011346;28;20428;-78
2021/08/30 08:30:22;;;;;;;12.50;5.80;;;16.40;99.90;;;;;;5013389;28;20495;-78
2021/08/30 08:32:48;;;;;;;12.50;6.13;;;16.30;99.90;;;;;;5012677;28;20504;-78
2021/08/30 08:35:14;;;;;;;9.40;5.53;;;16.20;99.90;;;;;;5011210;28;20197;-77
2021/08/30 08:37:40;;;;;;;8.77;6.10;;;16.10;99.90;;;;;;5012116;28;20214;-79
2021/08/30 08:40:07;;;;;;;9.07;5.43;;;16.10;99.90;;;;;;5013278;28;20645;-78
2021/08/30 08:42:38;;;;;;;8.30;4.73;;;16.10;99.90;;;;;;5011524;28;20567;-78
2021/08/30 08:45:05;;;;;;;10.67;5.87;;;16.00;99.90;;;;;;5011591;28;20444;-79
2021/08/30 08:47:30;;;;;;;6.70;4.70;;;16.00;99.90;;;;;;5013727;28;20433;-78
2021/08/30 08:49:56;;;;;;;8.80;5.43;;;16.00;99.90;;;;;;5012713;28;20542;-78
2021/08/30 08:52:23;;;;;;;8.50;5.07;;;16.00;99.90;;;;;;5013629;28;20220;-78
2021/08/30 08:54:49;;;;;;;9.07;5.70;;;16.10;99.90;;;;;;5013328;28;20428;-79
2021/08/30 08:57:15;;;;;;;12.10;5.40;;;16.10;99.90;;;;;;5013850;28;20943;-78
2021/08/30 08:59:57;;;;;;;10.20;6.27;;;16.10;99.90;;;;;;5012519;28;20436;-78
2021/08/30 09:02:28;;;;;;;8.20;5.07;;;16.20;99.90;;;;;;4993519;28;20409;-78
2021/08/30 09:04:54;;;;;;;7.67;5.30;;;16.10;99.90;;;;;;4999487;28;20461;-78
2021/08/30 09:07:34;;;;;;;7.53;4.80;;;16.20;99.90;;;;;;5013044;28;20776;-78
2021/08/30 09:10:00;;;;;;;9.13;3.80;;;16.20;99.90;;;;;;5013193;28;20542;-78
2021/08/30 09:12:27;;;;;;;8.30;4.90;;;16.20;99.90;;;;;;5012928;28;20915;-78
2021/08/30 09:14:52;;;;;;;6.47;4.93;;;16.30;99.90;;;;;;5012881;28;20482;-78
2021/08/30 09:17:18;;;;;;;7.20;5.20;;;16.30;99.90;;;;;;5012658;28;20920;-79
2021/08/30 09:19:43;;;;;;;6.00;3.93;;;16.40;99.90;;;;;;5013235;28;20177;-78
2021/08/30 09:22:10;;;;;;;6.97;4.93;;;16.30;99.90;;;;;;5010567;28;20228;-78
2021/08/30 09:24:37;;;;;;;7.93;5.20;;;16.40;99.90;;;;;;5010884;28;20198;-78
2021/08/30 09:27:04;;;;;;;6.60;4.87;;;16.40;99.90;;;;;;5008831;28;20433;-79
2021/08/30 09:29:32;;;;;;;5.17;4.53;;;16.40;99.90;;;;;;5013285;28;20776;-78
2021/08/30 09:32:10;;;;;;;6.60;4.37;;;16.40;99.90;;;;;;5016054;28;20489;-79
2021/08/30 09:34:44;;;;;;;6.10;4.57;;;16.40;99.90;;;;;;5016040;28;20487;-78
2021/08/30 09:37:18;;;;;;;8.73;3.80;;;16.40;99.90;;;;;;5015586;28;20427;-78
2021/08/30 09:39:45;;;;;;;5.67;3.70;;;16.30;99.90;;;;;;5015543;28;20431;-78
2021/08/30 09:42:12;;;;;;;6.40;4.40;;;16.40;99.90;;;;;;5015269;28;20413;-78
2021/08/30 09:44:37;;;;;;;5.70;3.93;;;16.50;99.90;;;;;;5013238;28;20487;-78
2021/08/30 09:47:14;;;;;;;5.57;4.53;;;16.50;99.90;;;;;;5016031;28;20440;-78
2021/08/30 09:49:41;;;;;;;6.43;4.93;;;16.50;99.90;;;;;;5013259;28;20296;-77
2021/08/30 09:52:08;;;;;;;6.77;4.53;;;16.60;99.90;;;;;;5014002;28;20429;-77
2021/08/30 09:54:35;;;;;;;8.87;5.20;;;16.50;99.90;;;;;;5015534;28;20550;-77
2021/08/30 09:57:02;;;;;;;6.47;3.93;;;16.40;99.90;;;;;;5014963;28;20797;-77
2021/08/30 09:59:30;;;;;;;5.33;4.00;;;16.50;99.90;;;;;;5015296;28;20417;-78
2021/08/30 10:01:59;;;;;;;6.07;4.73;;;16.50;99.90;;;;;;5014062;28;20417;-77
2021/08/30 10:04:26;;;;;;;5.87;4.10;;;16.40;99.90;;;;;;5016046;28;20454;-78
2021/08/30 10:06:54;;;;;;;3.83;3.30;;;16.50;99.90;;;;;;5014038;28;20784;-78
2021/08/30 10:09:21;;;;;;;5.67;3.87;;;16.70;99.90;;;;;;5014929;28;20437;-78
2021/08/30 10:11:50;;;;;;;6.20;5.17;;;16.60;99.90;;;;;;5017298;28;20465;-75
2021/08/30 10:14:24;;;;;;;8.00;5.33;;;16.60;99.90;;;;;;5015288;28;20440;-78
2021/08/30 10:16:51;;;;;;;7.63;5.00;;;16.70;99.90;;;;;;5016057;28;20475;-78
2021/08/30 10:19:28;;;;;;;8.13;5.10;;;16.90;99.90;;;;;;5014647;28;20449;-78
2021/08/30 10:21:54;;;;;;;8.57;5.50;;;16.90;99.90;;;;;;5014036;28;20427;-77
2021/08/30 10:24:20;;;;;;;5.20;4.43;;;16.90;99.90;;;;;;5014275;28;20543;-78
2021/08/30 10:26:47;;;;;;;4.80;4.33;;;16.90;99.90;;;;;;5014212;28;20411;-77
2021/08/30 10:29:14;;;;;;;5.73;3.93;;;16.80;99.90;;;;;;5014135;28;20265;-78
2021/08/30 10:31:47;;;;;;;7.20;4.70;;;16.80;99.90;;;;;;5027219;28;20427;-76
2021/08/30 10:34:27;;;;;;;5.67;4.27;;;16.70;99.90;;;;;;5017907;28;20451;-78
2021/08/30 10:36:55;;;;;;;7.57;5.60;;;16.60;99.90;;;;;;5013061;28;20435;-78
2021/08/30 10:39:21;;;;;;;8.07;5.67;;;16.60;99.90;;;;;;5011182;28;20440;-78
2021/08/30 10:41:48;;;;;;;7.37;5.60;;;16.60;99.90;;;;;;5015119;28;20943;-77
2021/08/30 10:44:21;;;;;;;6.20;4.83;;;16.60;99.90;;;;;;5012275;28;20444;-78
2021/08/30 10:46:50;;;;;;;5.00;3.60;;;16.70;99.90;;;;;;4995273;28;20520;-78
2021/08/30 10:49:30;;;;;;;7.37;5.40;;;16.80;99.90;;;;;;5010942;28;20445;-79
2021/08/30 10:52:14;;;;;;;8.33;4.90;;;16.80;99.90;;;;;;5014598;28;20413;-78
2021/08/30 10:54:53;;;;;;;7.20;4.77;;;16.90;99.90;;;;;;5014765;28;20793;-79
2021/08/30 10:57:30;;;;;;;5.27;4.40;;;16.90;99.90;;;;;;5014153;28;20418;-78
2021/08/30 10:59:57;;;;;;;5.73;4.00;;;16.90;99.90;;;;;;5013457;28;20423;-78
2021/08/30 11:02:45;;;;;;;6.53;4.63;;;16.90;99.90;;;;;;5014014;28;21134;-78
2021/08/30 11:05:10;;;;;;;6.23;4.47;;;17.00;99.90;;;;;;5003331;28;20456;-78
2021/08/30 11:07:37;;;;;;;6.60;4.37;;;16.90;99.90;;;;;;5013406;28;20520;-78
2021/08/30 11:10:09;;;;;;;4.47;3.93;;;17.10;99.90;;;;;;5007721;28;20283;-78
2021/08/30 11:12:35;;;;;;;6.43;4.20;;;17.20;99.90;;;;;;5003561;28;20428;-80
2021/08/30 11:15:01;;;;;;;5.40;4.33;;;17.30;99.90;;;;;;5013900;28;20440;-78
2021/08/30 11:17:28;;;;;;;6.37;4.73;;;17.30;99.90;;;;;;5012989;28;20501;-79
2021/08/30 11:19:55;;;;;;;4.20;3.80;;;17.40;99.90;;;;;;5014918;28;20419;-79
2021/08/30 11:22:21;;;;;;;4.70;4.20;;;17.50;99.90;;;;;;5014302;28;20461;-79
2021/08/30 11:24:46;;;;;;;5.67;4.30;;;17.70;99.90;;;;;;5011848;28;20445;-78
2021/08/30 11:27:29;;;;;;;6.00;3.67;;;17.60;99.90;;;;;;5007672;28;20180;-77
2021/08/30 11:30:00;;;;;;;4.30;3.70;;;17.60;99.90;;;;;;4994121;28;20203;-78
2021/08/30 11:32:29;;;;;;;4.63;3.97;;;17.80;99.90;;;;;;5010156;28;20435;-78
2021/08/30 11:34:56;;;;;;;4.87;3.57;;;17.80;99.90;;;;;;5013399;28;20446;-79
2021/08/30 11:37:23;;;;;;;9.37;4.23;;;17.40;99.90;;;;;;5013796;28;20411;-78
2021/08/30 11:39:50;;;;;;;4.70;4.20;;;17.30;99.90;;;;;;5014018;28;20415;-78
2021/08/30 11:42:34;;;;;;;4.83;3.50;;;17.40;99.90;;;;;;5014972;28;20690;-78
2021/08/30 11:45:03;;;;;;;4.90;3.77;;;17.40;99.90;;;;;;5014148;28;20873;-78
2021/08/30 11:47:32;;;;;;;6.70;4.10;;;17.60;99.90;;;;;;5012218;28;20467;-78
2021/08/30 11:50:00;;;;;;;6.30;4.40;;;17.60;99.90;;;;;;5013316;28;20526;-78
2021/08/30 11:52:30;;;;;;;4.20;3.53;;;17.70;99.90;;;;;;5001151;28;20419;-78
2021/08/30 11:55:12;;;;;;;4.50;4.00;;;17.80;99.90;;;;;;4993007;28;20557;-77
2021/08/30 11:57:47;;;;;;;3.77;3.37;;;17.80;99.90;;;;;;5012234;28;20432;-78
2021/08/30 12:00:23;;;;;;;7.73;4.50;;;17.80;99.90;;;;;;5014327;28;20523;-78
2021/08/30 12:02:52;;;;;;;3.83;3.23;;;17.90;99.90;;;;;;5012045;28;20416;-76
2021/08/30 12:05:18;;;;;;;4.07;3.30;;;17.90;99.90;;;;;;4996372;28;20509;-77
2021/08/30 12:07:44;;;;;;;4.77;3.47;;;17.80;99.90;;;;;;4995232;28;20417;-77
2021/08/30 12:10:12;;;;;;;4.27;3.60;;;17.80;99.90;;;;;;5011689;28;20458;-78
2021/08/30 12:12:56;;;;;;;3.50;3.00;;;17.60;99.90;;;;;;5013720;28;20216;-81
2021/08/30 12:15:30;;;;;;;3.70;3.13;;;17.40;99.90;;;;;;5014457;28;20422;-78
2021/08/30 12:17:58;;;;;;;4.03;3.67;;;17.50;99.90;;;;;;5014285;28;20413;-78
2021/08/30 12:20:37;;;;;;;5.57;3.60;;;17.60;99.90;;;;;;5009095;28;20418;-78
2021/08/30 12:23:08;;;;;;;6.10;3.50;;;17.70;99.90;;;;;;4998101;28;20451;-77
2021/08/30 12:25:37;;;;;;;4.70;3.07;;;17.80;99.90;;;;;;4998808;28;20431;-76
2021/08/30 12:28:06;;;;;;;3.10;2.90;;;17.70;99.90;;;;;;4999912;28;20444;-77
2021/08/30 12:30:39;;;;;;;5.50;3.50;;;17.60;99.90;;;;;;4992371;28;20564;-77
2021/08/30 12:33:09;;;;;;;4.87;3.20;;;17.60;99.90;;;;;;5000069;28;20415;-77
2021/08/30 12:35:37;;;;;;;4.03;2.83;;;17.60;99.90;;;;;;4996679;28;20456;-77
2021/08/30 12:38:17;;;;;;;4.57;2.77;;;17.70;99.90;;;;;;4993906;28;20405;-80
2021/08/30 12:40:45;;;;;;;5.07;3.40;;;17.50;99.90;;;;;;4993546;28;20488;-78
2021/08/30 12:43:11;;;;;;;2.70;2.50;;;17.50;99.90;;;;;;5010906;28;20415;-79
2021/08/30 12:45:37;;;;;;;3.70;3.00;;;17.50;99.90;;;;;;5012712;28;20976;-78
2021/08/30 12:48:06;;;;;;;2.83;2.37;;;17.60;99.90;;;;;;5014089;28;20426;-79
2021/08/30 12:50:32;;;;;;;3.10;2.50;;;17.60;99.90;;;;;;5011599;28;21260;-78
2021/08/30 12:52:58;;;;;;;2.50;2.20;;;17.50;99.90;;;;;;4995298;28;20565;-78